createdAt,value
2023-05-12T00:00:37.389Z,11.71
2023-05-12T00:03:05.094Z,11.68
2023-05-12T00:05:32.989Z,11.70
2023-05-12T00:08:02.261Z,11.71
2023-05-12T00:10:30.034Z,11.66
2023-05-12T00:12:58.172Z,11.68
2023-05-12T00:15:26.059Z,11.69
2023-05-12T00:17:53.836Z,11.69
2023-05-12T00:20:21.997Z,11.63
2023-05-12T00:22:49.752Z,11.63
2023-05-12T00:25:19.188Z,11.62
2023-05-12T00:27:46.847Z,11.60
2023-05-12T00:30:15.482Z,11.62
2023-05-12T00:32:43.135Z,11.61
2023-05-12T00:35:11.342Z,11.59
2023-05-12T00:37:38.924Z,11.60
2023-05-12T00:40:07.951Z,11.62
2023-05-12T00:42:37.340Z,11.62
2023-05-12T00:45:06.594Z,11.62
2023-05-12T00:47:34.908Z,11.63
2023-05-12T00:50:04.378Z,11.66
2023-05-12T00:52:32.469Z,11.64
2023-05-12T00:55:01.645Z,11.65
2023-05-12T00:57:29.861Z,11.63
2023-05-12T00:59:59.916Z,11.61
2023-05-12T01:02:28.023Z,11.57
2023-05-12T01:04:57.863Z,11.51
2023-05-12T01:07:27.331Z,11.53
2023-05-12T01:09:56.546Z,11.55
2023-05-12T01:12:25.845Z,11.53
2023-05-12T01:14:55.580Z,11.46
2023-05-12T01:17:30.918Z,11.45
2023-05-12T01:20:02.296Z,11.45
2023-05-12T01:22:32.048Z,11.44
2023-05-12T01:25:03.635Z,11.45
2023-05-12T01:27:34.901Z,11.46
2023-05-12T01:30:05.868Z,11.47
2023-05-12T01:32:36.646Z,11.50
2023-05-12T01:35:05.664Z,11.47
2023-05-12T01:37:35.101Z,11.46
2023-05-12T01:40:06.091Z,11.40
2023-05-12T01:42:35.123Z,11.41
2023-05-12T01:45:03.125Z,11.40
2023-05-12T01:47:31.770Z,11.40
2023-05-12T01:50:10.991Z,11.34
2023-05-12T01:52:39.364Z,11.25
2023-05-12T01:55:11.166Z,11.24
2023-05-12T01:57:51.648Z,11.24
2023-05-12T02:00:21.949Z,11.27
2023-05-12T02:02:52.245Z,11.24
2023-05-12T02:05:20.541Z,11.23
2023-05-12T02:07:50.661Z,11.24
2023-05-12T02:10:19.324Z,11.24
2023-05-12T02:12:47.175Z,11.25
2023-05-12T02:15:16.370Z,11.27
2023-05-12T02:17:53.908Z,11.28
2023-05-12T02:20:22.856Z,11.26
2023-05-12T02:22:51.211Z,11.26
2023-05-12T02:25:19.088Z,11.26
2023-05-12T02:27:48.221Z,11.25
2023-05-12T02:30:19.340Z,11.27
2023-05-12T02:32:47.932Z,11.28
2023-05-12T02:35:15.950Z,11.16
2023-05-12T02:37:43.880Z,11.15
2023-05-12T02:40:12.173Z,11.10
2023-05-12T02:42:41.401Z,11.12
2023-05-12T02:45:10.150Z,11.11
2023-05-12T02:47:39.214Z,11.13
2023-05-12T02:50:09.125Z,11.14
2023-05-12T02:52:37.189Z,11.16
2023-05-12T02:55:05.559Z,11.15
2023-05-12T02:57:34.334Z,11.15
2023-05-12T03:00:04.501Z,11.15
2023-05-12T03:02:33.968Z,11.17
2023-05-12T03:05:03.042Z,11.23
2023-05-12T03:07:31.124Z,11.22
2023-05-12T03:09:59.930Z,11.18
2023-05-12T03:12:29.233Z,11.18
2023-05-12T03:14:57.126Z,11.19
2023-05-12T03:17:24.758Z,11.18
2023-05-12T03:19:52.765Z,11.18
2023-05-12T03:22:21.743Z,11.20
2023-05-12T03:24:50.286Z,11.23
2023-05-12T03:27:18.257Z,11.24
2023-05-12T03:29:45.892Z,11.27
2023-05-12T03:32:13.830Z,11.28
2023-05-12T03:34:41.503Z,11.30
2023-05-12T03:37:09.507Z,11.31
2023-05-12T03:39:38.779Z,11.31
2023-05-12T03:42:07.374Z,11.30
2023-05-12T03:44:35.047Z,11.26
2023-05-12T03:47:02.756Z,11.30
2023-05-12T03:49:31.090Z,11.20
2023-05-12T03:51:58.977Z,11.15
2023-05-12T03:54:26.937Z,11.07
2023-05-12T03:56:55.933Z,11.10
2023-05-12T03:59:23.931Z,11.11
2023-05-12T04:01:53.594Z,11.13
2023-05-12T04:04:21.403Z,11.21
2023-05-12T04:06:49.476Z,11.26
2023-05-12T04:09:17.250Z,11.26
2023-05-12T04:11:45.255Z,11.24
2023-05-12T04:14:14.221Z,11.30
2023-05-12T04:16:42.279Z,11.34
2023-05-12T04:19:10.000Z,11.39
2023-05-12T04:21:38.565Z,11.39
2023-05-12T04:24:06.636Z,11.41
2023-05-12T04:26:37.094Z,11.41
2023-05-12T04:29:05.067Z,11.47
2023-05-12T04:31:34.584Z,11.52
2023-05-12T04:34:04.204Z,11.59
2023-05-12T04:36:33.657Z,11.65
2023-05-12T04:39:02.120Z,11.74
2023-05-12T04:41:30.160Z,11.68
2023-05-12T04:44:00.942Z,11.76
2023-05-12T04:46:29.296Z,11.75
2023-05-12T04:48:58.443Z,11.78
2023-05-12T04:51:26.830Z,11.84
2023-05-12T04:53:54.440Z,11.85
2023-05-12T04:56:22.676Z,11.94
2023-05-12T04:58:50.909Z,12.03
2023-05-12T05:01:18.998Z,11.96
2023-05-12T05:03:46.813Z,12.03
2023-05-12T05:06:15.904Z,12.08
2023-05-12T05:08:43.749Z,12.08
2023-05-12T05:11:11.369Z,12.09
2023-05-12T05:13:39.346Z,12.15
2023-05-12T05:16:07.735Z,12.17
2023-05-12T05:18:36.129Z,12.20
2023-05-12T05:21:03.939Z,12.17
2023-05-12T05:23:32.903Z,12.26
2023-05-12T05:26:00.496Z,12.41
2023-05-12T05:28:28.525Z,12.41
2023-05-12T05:30:56.186Z,12.48
2023-05-12T05:33:24.098Z,12.54
2023-05-12T05:35:52.257Z,12.65
2023-05-12T05:38:20.400Z,12.75
2023-05-12T05:40:54.122Z,12.78
2023-05-12T05:43:23.491Z,12.88
2023-05-12T05:45:51.619Z,13.01
2023-05-12T05:48:21.776Z,13.07
2023-05-12T05:50:51.604Z,13.15
2023-05-12T05:53:19.540Z,13.18
2023-05-12T05:55:48.896Z,13.23
2023-05-12T05:58:18.296Z,13.29
2023-05-12T06:00:46.970Z,13.32
2023-05-12T06:03:14.786Z,13.33
2023-05-12T06:05:44.067Z,13.36
2023-05-12T06:08:13.343Z,13.44
2023-05-12T06:10:42.077Z,13.48
2023-05-12T06:13:09.963Z,13.56
2023-05-12T06:15:39.376Z,13.52
2023-05-12T06:18:07.107Z,13.58
2023-05-12T06:20:34.839Z,13.60
2023-05-12T06:23:03.126Z,13.58
2023-05-12T06:25:33.000Z,13.59
2023-05-12T06:28:01.908Z,13.54
2023-05-12T06:30:29.600Z,13.67
2023-05-12T06:32:59.487Z,13.84
2023-05-12T06:35:27.355Z,14.02
2023-05-12T06:37:55.079Z,14.22
2023-05-12T06:40:22.653Z,14.39
2023-05-12T06:42:50.377Z,14.47
2023-05-12T06:45:21.331Z,14.53
2023-05-12T06:47:49.513Z,14.60
2023-05-12T06:50:18.680Z,14.82
2023-05-12T06:52:46.973Z,14.90
2023-05-12T06:55:19.740Z,14.86
2023-05-12T06:57:47.999Z,14.92
2023-05-12T07:00:16.433Z,14.97
2023-05-12T07:02:44.081Z,15.01
2023-05-12T07:05:12.026Z,15.14
2023-05-12T07:07:41.427Z,15.31
2023-05-12T07:10:10.308Z,15.39
2023-05-12T07:12:38.384Z,15.39
2023-05-12T07:15:07.176Z,15.48
2023-05-12T07:17:34.885Z,15.53
2023-05-12T07:20:04.768Z,15.59
2023-05-12T07:22:33.229Z,15.61
2023-05-12T07:25:02.308Z,15.59
2023-05-12T07:27:30.558Z,15.59
2023-05-12T07:29:58.403Z,15.61
2023-05-12T07:32:27.016Z,15.62
2023-05-12T07:34:54.783Z,15.66
2023-05-12T07:37:22.922Z,15.70
2023-05-12T07:39:50.716Z,15.83
2023-05-12T07:42:19.736Z,15.85
2023-05-12T07:44:47.336Z,15.89
2023-05-12T07:47:15.117Z,15.94
2023-05-12T07:49:44.296Z,15.99
2023-05-12T07:52:11.942Z,16.01
2023-05-12T07:54:39.523Z,16.02
2023-05-12T07:57:07.120Z,15.97
2023-05-12T07:59:36.031Z,15.97
2023-05-12T08:02:03.940Z,16.04
2023-05-12T08:04:31.694Z,16.00
2023-05-12T08:06:59.561Z,16.03
2023-05-12T08:09:27.151Z,16.06
2023-05-12T08:11:54.899Z,16.00
2023-05-12T08:14:22.821Z,15.84
2023-05-12T08:16:51.983Z,15.73
2023-05-12T08:19:19.724Z,15.51
2023-05-12T08:21:47.313Z,15.41
2023-05-12T08:24:14.880Z,15.41
2023-05-12T08:26:43.046Z,15.49
2023-05-12T08:29:10.694Z,15.62
2023-05-12T08:31:39.737Z,15.80
2023-05-12T08:34:10.934Z,15.92
2023-05-12T08:36:39.152Z,16.02
2023-05-12T08:39:06.882Z,16.11
2023-05-12T08:41:43.506Z,16.27
2023-05-12T08:44:12.395Z,16.31
2023-05-12T08:46:40.665Z,16.40
2023-05-12T08:49:15.714Z,16.61
2023-05-12T08:51:49.940Z,16.85
2023-05-12T08:54:25.822Z,16.99
2023-05-12T08:59:26.075Z,17.28
2023-05-12T09:01:55.896Z,17.34
2023-05-12T09:04:24.984Z,17.49
2023-05-12T09:06:55.572Z,17.88
2023-05-12T09:09:25.960Z,18.30
2023-05-12T09:11:57.828Z,18.34
2023-05-12T09:14:26.994Z,18.44
2023-05-12T09:16:59.636Z,18.63
2023-05-12T09:19:29.077Z,18.77
2023-05-12T09:21:56.879Z,18.54
2023-05-12T09:24:35.088Z,18.32
2023-05-12T09:27:02.719Z,18.18
2023-05-12T09:29:32.416Z,18.04
2023-05-12T09:32:03.349Z,18.00
2023-05-12T09:34:35.652Z,17.96
2023-05-12T09:37:06.430Z,17.99
2023-05-12T09:39:34.657Z,18.09
2023-05-12T09:42:02.446Z,18.06
2023-05-12T09:44:31.085Z,18.12
2023-05-12T09:47:07.128Z,18.10
2023-05-12T09:49:36.361Z,18.30
2023-05-12T09:52:05.384Z,18.28
2023-05-12T09:54:34.319Z,18.24
2023-05-12T09:57:04.851Z,18.36
2023-05-12T09:59:34.094Z,18.41
2023-05-12T10:02:04.617Z,18.39
2023-05-12T10:04:39.286Z,18.42
2023-05-12T10:07:11.503Z,18.63
2023-05-12T10:09:42.757Z,18.71
2023-05-12T10:12:11.175Z,18.82
2023-05-12T10:14:38.999Z,18.83
2023-05-12T10:17:07.301Z,18.90
2023-05-12T10:19:36.526Z,18.88
2023-05-12T10:22:06.748Z,19.02
2023-05-12T10:24:36.561Z,19.15
2023-05-12T10:27:06.433Z,19.18
2023-05-12T10:29:34.605Z,19.28
2023-05-12T10:32:02.567Z,19.37
2023-05-12T10:34:35.517Z,19.55
2023-05-12T10:37:08.145Z,19.53
2023-05-12T10:39:37.895Z,19.37
2023-05-12T10:42:08.307Z,19.24
2023-05-12T10:44:36.292Z,18.91
2023-05-12T10:47:14.106Z,19.08
2023-05-12T10:49:42.192Z,18.97
2023-05-12T10:52:12.341Z,18.92
2023-05-12T10:54:44.434Z,18.79
2023-05-12T10:57:18.929Z,18.82
2023-05-12T10:59:51.254Z,18.70
2023-05-12T11:02:22.078Z,18.24
2023-05-12T11:04:53.095Z,18.28
2023-05-12T11:07:24.251Z,18.07
2023-05-12T11:09:59.017Z,17.96
2023-05-12T11:12:32.251Z,17.88
2023-05-12T11:15:01.326Z,17.92
2023-05-12T11:17:29.074Z,18.06
2023-05-12T11:19:57.108Z,17.98
2023-05-12T11:22:25.434Z,17.99
2023-05-12T11:24:54.688Z,18.05
2023-05-12T11:27:24.010Z,18.07
2023-05-12T11:29:58.838Z,17.98
2023-05-12T11:32:26.898Z,17.93
2023-05-12T11:34:54.584Z,17.80
2023-05-12T11:37:22.956Z,17.77
2023-05-12T11:39:52.833Z,17.61
2023-05-12T11:42:24.407Z,17.50
2023-05-12T11:44:55.336Z,17.45
2023-05-12T11:47:23.007Z,17.37
2023-05-12T11:49:52.584Z,17.39
2023-05-12T11:52:22.157Z,17.17
2023-05-12T11:54:50.903Z,17.15
2023-05-12T11:57:31.704Z,17.13
2023-05-12T12:00:01.127Z,17.02
2023-05-12T12:02:29.505Z,17.06
2023-05-12T12:04:57.956Z,17.11
2023-05-12T12:07:31.303Z,17.14
2023-05-12T12:09:58.948Z,17.07
2023-05-12T12:12:26.733Z,17.05
2023-05-12T12:15:00.376Z,17.04
2023-05-12T12:17:30.834Z,16.93
2023-05-12T12:19:58.877Z,16.96
2023-05-12T12:22:26.891Z,16.92
2023-05-12T12:24:54.662Z,16.99
2023-05-12T12:27:22.266Z,17.12
2023-05-12T12:29:50.242Z,17.20
2023-05-12T12:32:19.611Z,17.22
2023-05-12T12:34:48.807Z,17.23
2023-05-12T12:37:17.058Z,17.32
2023-05-12T12:39:44.888Z,17.33
2023-05-12T12:42:13.311Z,17.41
2023-05-12T12:44:41.028Z,17.50
2023-05-12T12:47:08.729Z,17.61
2023-05-12T12:49:37.715Z,17.62
2023-05-12T12:52:05.975Z,17.71
2023-05-12T12:54:33.757Z,17.77
2023-05-12T12:57:01.502Z,17.85
2023-05-12T12:59:29.121Z,17.91
2023-05-12T13:01:59.940Z,17.96
2023-05-12T13:04:27.945Z,18.04
2023-05-12T13:06:57.033Z,18.16
2023-05-12T13:09:24.644Z,18.17
2023-05-12T13:11:52.910Z,18.09
2023-05-12T13:14:21.483Z,18.03
2023-05-12T13:16:49.232Z,18.13
2023-05-12T13:19:16.948Z,17.73
2023-05-12T13:21:44.883Z,17.96
2023-05-12T13:24:13.866Z,18.06
2023-05-12T13:26:41.478Z,18.22
2023-05-12T13:29:09.086Z,18.21
2023-05-12T13:31:38.616Z,18.03
2023-05-12T13:34:06.260Z,18.08
2023-05-12T13:36:34.667Z,18.00
2023-05-12T13:39:02.960Z,17.96
2023-05-12T13:41:32.194Z,17.74
2023-05-12T13:43:59.957Z,17.55
2023-05-12T13:46:27.556Z,17.63
2023-05-12T13:48:55.284Z,17.50
2023-05-12T13:51:23.559Z,17.32
2023-05-12T13:53:51.290Z,17.40
2023-05-12T13:56:19.508Z,17.24
2023-05-12T13:58:48.845Z,17.05
2023-05-12T14:01:16.959Z,16.94
2023-05-12T14:03:45.534Z,16.90
2023-05-12T14:06:13.336Z,16.78
2023-05-12T14:08:41.796Z,16.55
2023-05-12T14:11:09.995Z,16.42
2023-05-12T14:13:37.653Z,16.42
2023-05-12T14:16:07.647Z,16.33
2023-05-12T14:18:35.478Z,16.51
2023-05-12T14:21:03.382Z,16.20
2023-05-12T14:23:30.980Z,16.14
2023-05-12T14:25:59.332Z,16.21
2023-05-12T14:28:27.103Z,16.05
2023-05-12T14:30:54.991Z,16.08
2023-05-12T14:33:23.933Z,16.07
2023-05-12T14:36:03.040Z,15.86
2023-05-12T14:38:34.590Z,15.80
2023-05-12T14:41:02.239Z,15.74
2023-05-12T14:43:29.900Z,15.86
2023-05-12T14:45:57.858Z,15.92
2023-05-12T14:48:27.144Z,15.93
2023-05-12T14:50:55.510Z,15.93
2023-05-12T14:53:23.840Z,15.86
2023-05-12T14:55:51.559Z,15.83
2023-05-12T14:58:21.697Z,15.87
2023-05-12T15:00:51.299Z,15.79
2023-05-12T15:03:20.729Z,15.87
2023-05-12T15:08:21.731Z,15.79
2023-05-12T15:10:49.880Z,15.91
2023-05-12T15:13:20.160Z,16.00
2023-05-12T15:15:47.927Z,16.12
2023-05-12T15:18:16.137Z,16.19
2023-05-12T15:20:43.850Z,16.10
2023-05-12T15:23:13.152Z,15.99
2023-05-12T15:25:41.222Z,16.11
2023-05-12T15:28:09.485Z,16.16
2023-05-12T15:30:37.367Z,15.85
2023-05-12T15:33:06.170Z,15.93
2023-05-12T15:35:34.171Z,15.94
2023-05-12T15:38:01.905Z,15.97
2023-05-12T15:40:31.377Z,15.90
2023-05-12T15:42:59.134Z,15.99
2023-05-12T15:45:26.747Z,16.06
2023-05-12T15:47:54.376Z,16.07
2023-05-12T15:50:22.955Z,16.15
2023-05-12T15:52:51.116Z,16.13
2023-05-12T15:55:19.498Z,16.07
2023-05-12T15:57:48.889Z,15.92
2023-05-12T16:00:17.962Z,15.89
2023-05-12T16:02:45.662Z,15.60
2023-05-12T16:05:13.599Z,15.52
2023-05-12T16:07:41.357Z,15.23
2023-05-12T16:10:10.192Z,15.31
2023-05-12T16:12:37.801Z,15.28
2023-05-12T16:15:07.608Z,15.22
2023-05-12T16:17:35.482Z,15.24
2023-05-12T16:20:04.487Z,15.13
2023-05-12T16:22:32.253Z,15.03
2023-05-12T16:24:59.859Z,15.11
2023-05-12T16:27:28.066Z,15.17
2023-05-12T16:29:55.653Z,15.24
2023-05-12T16:32:24.643Z,15.31
2023-05-12T16:34:52.274Z,15.31
2023-05-12T16:37:19.886Z,15.36
2023-05-12T16:39:47.478Z,15.40
2023-05-12T16:42:15.483Z,15.38
2023-05-12T16:44:43.082Z,15.39
2023-05-12T16:47:11.106Z,15.15
2023-05-12T16:49:40.039Z,15.27
2023-05-12T16:52:09.463Z,15.22
2023-05-12T16:54:38.051Z,15.20
2023-05-12T16:57:06.089Z,15.20
2023-05-12T16:59:33.704Z,15.10
2023-05-12T17:02:01.960Z,14.89
2023-05-12T17:04:29.882Z,14.88
2023-05-12T17:06:59.175Z,14.69
2023-05-12T17:09:26.823Z,14.70
2023-05-12T17:11:54.433Z,14.64
2023-05-12T17:14:22.849Z,14.68
2023-05-12T17:16:50.443Z,14.67
2023-05-12T17:19:18.280Z,14.61
2023-05-12T17:21:46.028Z,14.56
2023-05-12T17:24:15.214Z,14.59
2023-05-12T17:26:42.996Z,14.55
2023-05-12T17:29:11.362Z,14.62
2023-05-12T17:31:39.494Z,14.56
2023-05-12T17:34:07.301Z,14.45
2023-05-12T17:36:34.934Z,14.29
2023-05-12T17:39:03.835Z,14.22
2023-05-12T17:41:35.842Z,14.36
2023-05-12T17:44:03.455Z,14.36
2023-05-12T17:46:31.140Z,14.19
2023-05-12T17:48:58.963Z,14.32
2023-05-12T17:51:26.874Z,14.29
2023-05-12T17:53:54.476Z,14.31
2023-05-12T17:56:22.559Z,14.33
2023-05-12T17:58:51.567Z,14.25
2023-05-12T18:01:19.436Z,14.18
2023-05-12T18:03:47.034Z,14.14
2023-05-12T18:06:15.607Z,14.05
2023-05-12T18:08:43.322Z,14.12
2023-05-12T18:11:11.372Z,14.18
2023-05-12T18:13:40.007Z,14.12
2023-05-12T18:16:18.244Z,14.10
2023-05-12T18:18:55.669Z,14.00
2023-05-12T18:21:23.532Z,13.94
2023-05-12T18:23:51.223Z,13.99
2023-05-12T18:26:18.890Z,13.90
2023-05-12T18:28:46.884Z,13.84
2023-05-12T18:31:19.216Z,13.80
2023-05-12T18:33:47.629Z,13.84
2023-05-12T18:36:15.451Z,13.74
2023-05-12T18:38:43.428Z,13.69
2023-05-12T18:41:11.179Z,13.70
2023-05-12T18:43:39.518Z,13.64
2023-05-12T18:46:07.215Z,13.60
2023-05-12T18:48:36.493Z,13.62
2023-05-12T18:51:04.496Z,13.65
2023-05-12T18:53:32.220Z,13.69
2023-05-12T18:55:59.885Z,13.66
2023-05-12T18:58:27.621Z,13.53
2023-05-12T19:00:55.569Z,13.61
2023-05-12T19:03:23.549Z,13.50
2023-05-12T19:05:52.517Z,13.48
2023-05-12T19:08:21.423Z,13.46
2023-05-12T19:10:50.733Z,13.37
2023-05-12T19:13:18.546Z,13.32
2023-05-12T19:15:46.680Z,13.40
2023-05-12T19:18:14.306Z,13.32
2023-05-12T19:20:42.507Z,13.42
2023-05-12T19:23:11.540Z,13.38
2023-05-12T19:25:39.304Z,13.37
2023-05-12T19:28:07.037Z,13.33
2023-05-12T19:30:35.370Z,13.37
2023-05-12T19:33:03.058Z,13.32
2023-05-12T19:35:30.969Z,13.25
2023-05-12T19:37:58.808Z,13.26
2023-05-12T19:40:30.864Z,13.32
2023-05-12T19:43:00.007Z,13.35
2023-05-12T19:45:30.762Z,13.36
2023-05-12T19:47:59.598Z,13.31
2023-05-12T19:50:29.536Z,13.19
2023-05-12T19:52:57.715Z,13.29
2023-05-12T19:55:25.347Z,13.32
2023-05-12T19:57:54.512Z,13.25
2023-05-12T20:00:22.470Z,13.31
2023-05-12T20:02:50.590Z,13.29
2023-05-12T20:05:18.800Z,13.17
2023-05-12T20:07:46.518Z,13.20
2023-05-12T20:10:14.105Z,13.21
2023-05-12T20:12:41.734Z,13.24
2023-05-12T20:15:11.654Z,13.13
2023-05-12T20:17:39.375Z,13.15
2023-05-12T20:20:10.901Z,13.19
2023-05-12T20:22:39.028Z,13.11
2023-05-12T20:25:07.495Z,13.03
2023-05-12T20:27:35.287Z,13.12
2023-05-12T20:30:02.901Z,12.87
2023-05-12T20:32:32.457Z,12.95
2023-05-12T20:35:00.171Z,12.99
2023-05-12T20:37:27.828Z,12.78
2023-05-12T20:39:55.697Z,12.93
2023-05-12T20:42:23.385Z,12.98
2023-05-12T20:44:50.993Z,13.03
2023-05-12T20:47:18.684Z,13.00
2023-05-12T20:49:48.288Z,12.97
2023-05-12T20:52:16.009Z,13.02
2023-05-12T20:54:43.620Z,13.01
2023-05-12T20:57:11.266Z,12.99
2023-05-12T20:59:38.872Z,12.90
2023-05-12T21:02:06.748Z,12.89
2023-05-12T21:04:34.417Z,12.83
2023-05-12T21:07:03.354Z,12.86
2023-05-12T21:09:30.994Z,12.81
2023-05-12T21:11:58.976Z,12.79
2023-05-12T21:14:26.895Z,12.70
2023-05-12T21:16:54.591Z,12.76
2023-05-12T21:19:22.569Z,12.71
2023-05-12T21:21:50.212Z,12.70
2023-05-12T21:24:19.288Z,12.66
2023-05-12T21:26:46.886Z,12.65
2023-05-12T21:29:14.762Z,12.58
2023-05-12T21:31:42.397Z,12.66
2023-05-12T21:34:10.482Z,12.57
2023-05-12T21:36:38.594Z,12.61
2023-05-12T21:39:06.238Z,12.58
2023-05-12T21:41:35.902Z,12.57
2023-05-12T21:44:03.825Z,12.65
2023-05-12T21:46:31.556Z,12.60
2023-05-12T21:48:59.254Z,12.56
2023-05-12T21:51:27.101Z,12.57
2023-05-12T21:53:55.257Z,12.47
2023-05-12T21:56:23.195Z,12.54
2023-05-12T21:58:52.220Z,12.62
2023-05-12T22:01:20.162Z,12.60
2023-05-12T22:03:47.931Z,12.58
2023-05-12T22:06:15.794Z,12.55
2023-05-12T22:08:43.526Z,12.52
2023-05-12T22:11:12.174Z,12.44
2023-05-12T22:13:39.759Z,12.43
2023-05-12T22:16:08.970Z,12.54
2023-05-12T22:18:37.897Z,12.47
2023-05-12T22:21:06.506Z,12.38
2023-05-12T22:23:35.157Z,12.35
2023-05-12T22:26:04.964Z,12.38
2023-05-12T22:28:33.595Z,12.43
2023-05-12T22:31:01.435Z,12.37
2023-05-12T22:33:31.028Z,12.29
2023-05-12T22:35:59.270Z,12.32
2023-05-12T22:38:26.916Z,12.30
2023-05-12T22:40:54.825Z,12.28
2023-05-12T22:43:22.710Z,12.24
2023-05-12T22:45:51.801Z,12.28
2023-05-12T22:48:19.806Z,12.30
2023-05-12T22:50:49.199Z,12.32
2023-05-12T22:53:17.043Z,12.31
2023-05-12T22:55:44.637Z,12.32
2023-05-12T22:58:12.374Z,12.32
2023-05-12T23:00:40.093Z,12.30
2023-05-12T23:03:08.154Z,12.31
2023-05-12T23:05:35.903Z,12.21
2023-05-12T23:08:04.946Z,12.28
2023-05-12T23:10:32.712Z,12.27
2023-05-12T23:13:00.425Z,12.23
2023-05-12T23:15:28.041Z,12.24
2023-05-12T23:17:55.977Z,12.26
2023-05-12T23:20:24.123Z,12.28
2023-05-12T23:22:51.786Z,12.29
2023-05-12T23:25:21.058Z,12.22
2023-05-12T23:27:48.659Z,12.19
2023-05-12T23:30:16.486Z,12.12
2023-05-12T23:32:44.230Z,12.21
2023-05-12T23:35:11.962Z,12.23
2023-05-12T23:37:39.606Z,12.04
2023-05-12T23:40:08.816Z,12.15
2023-05-12T23:42:37.786Z,12.23
2023-05-12T23:45:06.457Z,12.16
2023-05-12T23:47:34.207Z,12.17
2023-05-12T23:50:01.897Z,12.18
2023-05-12T23:52:29.581Z,12.05
2023-05-12T23:54:57.345Z,11.96
2023-05-12T23:57:25.131Z,11.95
2023-05-12T23:59:54.110Z,11.89
